Pagrindinis puslapis
METAR-TAF:

METAR-TAF

Oro uostai :

Andøya, Norvegija

platuma: 69-18N, ilguma: 016-09E, Aukštis: 1 m

Dabartinis oras

Ataskaita buvo paskelbta 29 minutes, ne 06:50 UTC
Vėjas 17 kt iš Rytų
Temperatūra 1°C
Drėgmė 47%
Slėgis 1004 hPa
Matomumas 10 km arba daugiau
nėra debesų žemiau 1500 m ir nėra kamuolinių lietaus debesų

METAR: ENAN 020650Z 09017KT CAVOK 01/M09 Q1004

Laikas: 08:19 (07:19 UTC)

Prognozė

Prognozė galioja nuo 02 metu 06 UTC su 03 metu 06 UTC
Vėjas 20 kt iš Rytų
Matomumas 10 km arba daugiau
Mažai debesys ne aukštis 3000 ft
Su prošvaistėmis ne aukštis 6000 ft

TAF: ENAN 0206/0306 08020KT 9999 FEW030 BKN060

Orai ataskaitas ir orų prognozės (METAR, TAF).

turimą stotys yra geltonos ir raudonos taškus žemėlapyje.

Perkelti pele per norėdami pamatyti stoties vardą.

Tada spustelėkite, norėdami matyti oro stebėjimo ir prognozės.

Norėdami pakeisti žemėlapį: spustelėkite ant žalios mygtukų su juodo kryžiaus žemyn,; žalią mygtuką su brūkšneliu, jei norite nutolinti; arba žalių rodyklių gretimoms žemėlapius.


METAR-TAF: